sensor_id;sensor_type;location;lat;lon;timestamp;P1;durP1;ratioP1;P2;durP2;ratioP2
20379;SDS011;10349;48.666;8.948;2023-05-07T00:00:21;4.17;;;3.77;;
20379;SDS011;10349;48.666;8.948;2023-05-07T00:02:49;6.80;;;3.80;;
20379;SDS011;10349;48.666;8.948;2023-05-07T00:05:15;4.20;;;3.77;;
20379;SDS011;10349;48.666;8.948;2023-05-07T00:07:41;3.80;;;3.60;;
20379;SDS011;10349;48.666;8.948;2023-05-07T00:10:07;6.47;;;3.93;;
20379;SDS011;10349;48.666;8.948;2023-05-07T00:12:33;9.20;;;3.83;;
20379;SDS011;10349;48.666;8.948;2023-05-07T00:14:59;3.60;;;3.40;;
20379;SDS011;10349;48.666;8.948;2023-05-07T00:17:26;4.40;;;4.00;;
20379;SDS011;10349;48.666;8.948;2023-05-07T00:19:52;3.70;;;3.50;;
20379;SDS011;10349;48.666;8.948;2023-05-07T00:22:18;4.20;;;3.80;;
20379;SDS011;10349;48.666;8.948;2023-05-07T00:24:43;3.80;;;3.60;;
20379;SDS011;10349;48.666;8.948;2023-05-07T00:27:09;4.30;;;3.83;;
20379;SDS011;10349;48.666;8.948;2023-05-07T00:29:35;3.90;;;3.40;;
20379;SDS011;10349;48.666;8.948;2023-05-07T00:32:01;6.23;;;3.90;;
20379;SDS011;10349;48.666;8.948;2023-05-07T00:34:29;3.70;;;3.50;;
20379;SDS011;10349;48.666;8.948;2023-05-07T00:36:55;4.53;;;4.13;;
20379;SDS011;10349;48.666;8.948;2023-05-07T00:39:20;4.00;;;3.70;;
20379;SDS011;10349;48.666;8.948;2023-05-07T00:41:47;8.07;;;4.57;;
20379;SDS011;10349;48.666;8.948;2023-05-07T00:44:13;3.67;;;3.37;;
20379;SDS011;10349;48.666;8.948;2023-05-07T00:46:39;3.50;;;3.27;;
20379;SDS011;10349;48.666;8.948;2023-05-07T00:49:05;4.87;;;4.07;;
20379;SDS011;10349;48.666;8.948;2023-05-07T00:51:31;7.67;;;3.67;;
20379;SDS011;10349;48.666;8.948;2023-05-07T00:53:57;4.13;;;3.83;;
20379;SDS011;10349;48.666;8.948;2023-05-07T00:56:25;4.43;;;4.03;;
20379;SDS011;10349;48.666;8.948;2023-05-07T00:58:52;3.63;;;3.17;;
20379;SDS011;10349;48.666;8.948;2023-05-07T01:01:18;4.03;;;3.77;;
20379;SDS011;10349;48.666;8.948;2023-05-07T01:03:43;4.10;;;3.77;;
20379;SDS011;10349;48.666;8.948;2023-05-07T01:06:09;4.30;;;4.00;;
20379;SDS011;10349;48.666;8.948;2023-05-07T01:08:38;4.73;;;3.57;;
20379;SDS011;10349;48.666;8.948;2023-05-07T01:11:06;3.90;;;3.60;;
20379;SDS011;10349;48.666;8.948;2023-05-07T01:13:33;3.97;;;3.67;;
20379;SDS011;10349;48.666;8.948;2023-05-07T01:16:00;3.70;;;3.50;;
20379;SDS011;10349;48.666;8.948;2023-05-07T01:18:27;4.00;;;3.70;;
20379;SDS011;10349;48.666;8.948;2023-05-07T01:20:55;4.23;;;3.90;;
20379;SDS011;10349;48.666;8.948;2023-05-07T01:23:23;4.70;;;4.33;;
20379;SDS011;10349;48.666;8.948;2023-05-07T01:25:51;4.27;;;3.93;;
20379;SDS011;10349;48.666;8.948;2023-05-07T01:28:18;4.57;;;4.27;;
20379;SDS011;10349;48.666;8.948;2023-05-07T01:30:44;4.37;;;3.97;;
20379;SDS011;10349;48.666;8.948;2023-05-07T01:33:15;5.00;;;4.60;;
20379;SDS011;10349;48.666;8.948;2023-05-07T01:35:45;8.03;;;4.53;;
20379;SDS011;10349;48.666;8.948;2023-05-07T01:38:12;4.93;;;4.50;;
20379;SDS011;10349;48.666;8.948;2023-05-07T01:40:38;4.23;;;3.90;;
20379;SDS011;10349;48.666;8.948;2023-05-07T01:43:04;4.73;;;4.43;;
20379;SDS011;10349;48.666;8.948;2023-05-07T01:45:32;4.03;;;3.73;;
20379;SDS011;10349;48.666;8.948;2023-05-07T01:48:00;4.37;;;3.97;;
20379;SDS011;10349;48.666;8.948;2023-05-07T01:50:26;3.77;;;3.47;;
20379;SDS011;10349;48.666;8.948;2023-05-07T01:52:52;4.73;;;4.33;;
20379;SDS011;10349;48.666;8.948;2023-05-07T01:55:18;3.87;;;3.47;;
20379;SDS011;10349;48.666;8.948;2023-05-07T01:57:44;3.93;;;3.73;;
20379;SDS011;10349;48.666;8.948;2023-05-07T02:00:10;3.80;;;3.60;;
20379;SDS011;10349;48.666;8.948;2023-05-07T02:02:41;4.20;;;3.47;;
20379;SDS011;10349;48.666;8.948;2023-05-07T02:05:16;3.57;;;3.37;;
20379;SDS011;10349;48.666;8.948;2023-05-07T02:07:45;4.30;;;4.00;;
20379;SDS011;10349;48.666;8.948;2023-05-07T02:10:12;3.90;;;3.60;;
20379;SDS011;10349;48.666;8.948;2023-05-07T02:12:38;6.23;;;4.40;;
20379;SDS011;10349;48.666;8.948;2023-05-07T02:15:04;7.30;;;4.33;;
20379;SDS011;10349;48.666;8.948;2023-05-07T02:17:30;4.97;;;4.03;;
20379;SDS011;10349;48.666;8.948;2023-05-07T02:20:00;4.53;;;4.13;;
20379;SDS011;10349;48.666;8.948;2023-05-07T02:22:26;5.43;;;4.93;;
20379;SDS011;10349;48.666;8.948;2023-05-07T02:24:51;4.70;;;4.30;;
20379;SDS011;10349;48.666;8.948;2023-05-07T02:27:17;4.90;;;4.47;;
20379;SDS011;10349;48.666;8.948;2023-05-07T02:29:43;4.63;;;4.23;;
20379;SDS011;10349;48.666;8.948;2023-05-07T02:32:09;3.70;;;3.50;;
20379;SDS011;10349;48.666;8.948;2023-05-07T02:34:35;4.63;;;4.33;;
20379;SDS011;10349;48.666;8.948;2023-05-07T02:37:00;3.70;;;3.50;;
20379;SDS011;10349;48.666;8.948;2023-05-07T02:39:26;3.77;;;3.57;;
20379;SDS011;10349;48.666;8.948;2023-05-07T02:41:52;4.10;;;3.80;;
20379;SDS011;10349;48.666;8.948;2023-05-07T02:44:17;5.27;;;4.77;;
20379;SDS011;10349;48.666;8.948;2023-05-07T02:46:47;4.07;;;3.77;;
20379;SDS011;10349;48.666;8.948;2023-05-07T02:49:13;3.90;;;3.60;;
20379;SDS011;10349;48.666;8.948;2023-05-07T02:51:38;3.47;;;3.17;;
20379;SDS011;10349;48.666;8.948;2023-05-07T02:54:09;4.13;;;3.80;;
20379;SDS011;10349;48.666;8.948;2023-05-07T02:56:35;3.87;;;3.67;;
20379;SDS011;10349;48.666;8.948;2023-05-07T02:59:00;5.37;;;3.97;;
20379;SDS011;10349;48.666;8.948;2023-05-07T03:01:31;5.20;;;4.70;;
20379;SDS011;10349;48.666;8.948;2023-05-07T03:04:02;8.50;;;4.17;;
20379;SDS011;10349;48.666;8.948;2023-05-07T03:06:28;4.03;;;3.73;;
20379;SDS011;10349;48.666;8.948;2023-05-07T03:08:54;3.80;;;3.50;;
20379;SDS011;10349;48.666;8.948;2023-05-07T03:11:20;4.33;;;4.03;;
20379;SDS011;10349;48.666;8.948;2023-05-07T03:13:45;4.60;;;3.50;;
20379;SDS011;10349;48.666;8.948;2023-05-07T03:16:11;3.83;;;3.63;;
20379;SDS011;10349;48.666;8.948;2023-05-07T03:18:37;3.90;;;3.70;;
20379;SDS011;10349;48.666;8.948;2023-05-07T03:21:03;5.10;;;4.73;;
20379;SDS011;10349;48.666;8.948;2023-05-07T03:23:28;4.17;;;3.87;;
20379;SDS011;10349;48.666;8.948;2023-05-07T03:25:54;4.03;;;3.73;;
20379;SDS011;10349;48.666;8.948;2023-05-07T03:28:20;30.33;;;4.23;;
20379;SDS011;10349;48.666;8.948;2023-05-07T03:30:51;5.03;;;3.93;;
20379;SDS011;10349;48.666;8.948;2023-05-07T03:33:17;5.63;;;4.50;;
20379;SDS011;10349;48.666;8.948;2023-05-07T03:35:42;4.67;;;4.10;;
20379;SDS011;10349;48.666;8.948;2023-05-07T03:38:09;3.47;;;3.27;;
20379;SDS011;10349;48.666;8.948;2023-05-07T03:40:36;3.83;;;3.53;;
20379;SDS011;10349;48.666;8.948;2023-05-07T03:43:03;4.63;;;4.23;;
20379;SDS011;10349;48.666;8.948;2023-05-07T03:45:30;3.63;;;3.43;;
20379;SDS011;10349;48.666;8.948;2023-05-07T03:48:10;5.83;;;3.17;;
20379;SDS011;10349;48.666;8.948;2023-05-07T03:50:37;4.10;;;3.80;;
20379;SDS011;10349;48.666;8.948;2023-05-07T03:53:03;3.90;;;3.63;;
20379;SDS011;10349;48.666;8.948;2023-05-07T03:55:30;4.00;;;3.70;;
20379;SDS011;10349;48.666;8.948;2023-05-07T03:57:58;3.10;;;2.90;;
20379;SDS011;10349;48.666;8.948;2023-05-07T04:00:26;4.83;;;4.43;;
20379;SDS011;10349;48.666;8.948;2023-05-07T04:02:51;3.50;;;3.27;;
20379;SDS011;10349;48.666;8.948;2023-05-07T04:05:24;5.70;;;4.00;;
20379;SDS011;10349;48.666;8.948;2023-05-07T04:07:54;4.50;;;4.13;;
20379;SDS011;10349;48.666;8.948;2023-05-07T04:10:25;3.93;;;3.60;;
20379;SDS011;10349;48.666;8.948;2023-05-07T04:12:54;3.40;;;3.20;;
20379;SDS011;10349;48.666;8.948;2023-05-07T04:15:22;5.43;;;3.80;;
20379;SDS011;10349;48.666;8.948;2023-05-07T04:17:48;3.60;;;3.30;;
20379;SDS011;10349;48.666;8.948;2023-05-07T04:20:17;4.20;;;3.80;;
20379;SDS011;10349;48.666;8.948;2023-05-07T04:22:45;5.50;;;3.90;;
20379;SDS011;10349;48.666;8.948;2023-05-07T04:25:11;3.80;;;3.50;;
20379;SDS011;10349;48.666;8.948;2023-05-07T04:27:37;5.47;;;3.77;;
20379;SDS011;10349;48.666;8.948;2023-05-07T04:30:03;3.63;;;3.40;;
20379;SDS011;10349;48.666;8.948;2023-05-07T04:32:33;3.70;;;3.50;;
20379;SDS011;10349;48.666;8.948;2023-05-07T04:34:59;5.20;;;3.80;;
20379;SDS011;10349;48.666;8.948;2023-05-07T04:37:25;5.77;;;4.27;;
20379;SDS011;10349;48.666;8.948;2023-05-07T04:39:51;4.13;;;3.83;;
20379;SDS011;10349;48.666;8.948;2023-05-07T04:42:17;4.00;;;3.73;;
20379;SDS011;10349;48.666;8.948;2023-05-07T04:44:44;3.73;;;3.33;;
20379;SDS011;10349;48.666;8.948;2023-05-07T04:47:10;5.13;;;4.07;;
20379;SDS011;10349;48.666;8.948;2023-05-07T04:49:37;3.93;;;3.60;;
20379;SDS011;10349;48.666;8.948;2023-05-07T04:52:04;4.83;;;3.97;;
20379;SDS011;10349;48.666;8.948;2023-05-07T04:54:30;4.37;;;4.07;;
20379;SDS011;10349;48.666;8.948;2023-05-07T04:56:56;4.40;;;4.10;;
20379;SDS011;10349;48.666;8.948;2023-05-07T04:59:22;4.23;;;3.93;;
20379;SDS011;10349;48.666;8.948;2023-05-07T05:01:48;4.60;;;4.27;;
20379;SDS011;10349;48.666;8.948;2023-05-07T05:04:14;8.00;;;4.90;;
20379;SDS011;10349;48.666;8.948;2023-05-07T05:06:40;4.57;;;4.17;;
20379;SDS011;10349;48.666;8.948;2023-05-07T05:09:06;5.67;;;4.03;;
20379;SDS011;10349;48.666;8.948;2023-05-07T05:11:33;4.03;;;3.83;;
20379;SDS011;10349;48.666;8.948;2023-05-07T05:13:59;5.00;;;4.50;;
20379;SDS011;10349;48.666;8.948;2023-05-07T05:16:26;4.40;;;4.00;;
20379;SDS011;10349;48.666;8.948;2023-05-07T05:18:51;4.50;;;4.10;;
20379;SDS011;10349;48.666;8.948;2023-05-07T05:21:19;5.10;;;4.80;;
20379;SDS011;10349;48.666;8.948;2023-05-07T05:23:47;5.10;;;4.67;;
20379;SDS011;10349;48.666;8.948;2023-05-07T05:26:16;4.27;;;4.07;;
20379;SDS011;10349;48.666;8.948;2023-05-07T05:28:42;4.63;;;4.30;;
20379;SDS011;10349;48.666;8.948;2023-05-07T05:31:08;6.23;;;5.03;;
20379;SDS011;10349;48.666;8.948;2023-05-07T05:33:35;6.03;;;4.80;;
20379;SDS011;10349;48.666;8.948;2023-05-07T05:36:03;5.60;;;4.07;;
20379;SDS011;10349;48.666;8.948;2023-05-07T05:38:29;4.23;;;3.97;;
20379;SDS011;10349;48.666;8.948;2023-05-07T05:40:55;3.80;;;3.60;;
20379;SDS011;10349;48.666;8.948;2023-05-07T05:43:21;6.30;;;4.63;;
20379;SDS011;10349;48.666;8.948;2023-05-07T05:45:48;3.80;;;3.60;;
20379;SDS011;10349;48.666;8.948;2023-05-07T05:48:14;4.70;;;4.30;;
20379;SDS011;10349;48.666;8.948;2023-05-07T05:50:41;4.10;;;3.87;;
20379;SDS011;10349;48.666;8.948;2023-05-07T05:53:08;4.90;;;4.10;;
20379;SDS011;10349;48.666;8.948;2023-05-07T05:55:35;4.40;;;4.10;;
20379;SDS011;10349;48.666;8.948;2023-05-07T05:58:01;4.77;;;4.33;;
20379;SDS011;10349;48.666;8.948;2023-05-07T06:00:28;4.87;;;4.47;;
20379;SDS011;10349;48.666;8.948;2023-05-07T06:02:58;5.00;;;4.60;;
20379;SDS011;10349;48.666;8.948;2023-05-07T06:05:25;4.53;;;4.23;;
20379;SDS011;10349;48.666;8.948;2023-05-07T06:07:53;5.47;;;4.97;;
20379;SDS011;10349;48.666;8.948;2023-05-07T06:10:18;3.90;;;3.60;;
20379;SDS011;10349;48.666;8.948;2023-05-07T06:12:44;5.43;;;4.80;;
20379;SDS011;10349;48.666;8.948;2023-05-07T06:15:10;5.00;;;4.50;;
20379;SDS011;10349;48.666;8.948;2023-05-07T06:17:37;4.67;;;4.27;;
20379;SDS011;10349;48.666;8.948;2023-05-07T06:20:02;4.70;;;4.40;;
20379;SDS011;10349;48.666;8.948;2023-05-07T06:22:28;4.57;;;4.27;;
20379;SDS011;10349;48.666;8.948;2023-05-07T06:24:55;4.00;;;3.70;;
20379;SDS011;10349;48.666;8.948;2023-05-07T06:27:21;5.70;;;5.30;;
20379;SDS011;10349;48.666;8.948;2023-05-07T06:29:47;5.00;;;4.57;;
20379;SDS011;10349;48.666;8.948;2023-05-07T06:32:15;4.33;;;4.00;;
20379;SDS011;10349;48.666;8.948;2023-05-07T06:34:43;4.33;;;3.93;;
20379;SDS011;10349;48.666;8.948;2023-05-07T06:37:09;3.93;;;3.60;;
20379;SDS011;10349;48.666;8.948;2023-05-07T06:39:50;3.87;;;3.67;;
20379;SDS011;10349;48.666;8.948;2023-05-07T06:42:16;4.10;;;3.80;;
20379;SDS011;10349;48.666;8.948;2023-05-07T06:44:45;4.00;;;3.80;;
20379;SDS011;10349;48.666;8.948;2023-05-07T06:47:13;5.47;;;5.00;;
20379;SDS011;10349;48.666;8.948;2023-05-07T06:49:39;4.60;;;4.17;;
20379;SDS011;10349;48.666;8.948;2023-05-07T06:52:05;4.30;;;4.00;;
20379;SDS011;10349;48.666;8.948;2023-05-07T06:54:31;4.27;;;3.97;;
20379;SDS011;10349;48.666;8.948;2023-05-07T06:56:57;4.47;;;4.17;;
20379;SDS011;10349;48.666;8.948;2023-05-07T06:59:25;5.00;;;4.60;;
20379;SDS011;10349;48.666;8.948;2023-05-07T07:01:51;4.93;;;4.60;;
20379;SDS011;10349;48.666;8.948;2023-05-07T07:04:17;5.27;;;4.83;;
20379;SDS011;10349;48.666;8.948;2023-05-07T07:06:47;4.90;;;4.60;;
20379;SDS011;10349;48.666;8.948;2023-05-07T07:09:13;4.20;;;3.90;;
20379;SDS011;10349;48.666;8.948;2023-05-07T07:11:39;4.40;;;3.97;;
20379;SDS011;10349;48.666;8.948;2023-05-07T07:14:06;5.60;;;5.07;;
20379;SDS011;10349;48.666;8.948;2023-05-07T07:16:35;4.27;;;3.97;;
20379;SDS011;10349;48.666;8.948;2023-05-07T07:19:04;5.70;;;5.30;;
20379;SDS011;10349;48.666;8.948;2023-05-07T07:21:30;5.23;;;4.83;;
20379;SDS011;10349;48.666;8.948;2023-05-07T07:23:57;6.10;;;4.17;;
20379;SDS011;10349;48.666;8.948;2023-05-07T07:26:24;5.83;;;4.80;;
20379;SDS011;10349;48.666;8.948;2023-05-07T07:28:49;4.23;;;3.93;;
20379;SDS011;10349;48.666;8.948;2023-05-07T07:31:18;4.13;;;3.83;;
20379;SDS011;10349;48.666;8.948;2023-05-07T07:33:45;4.37;;;4.07;;
20379;SDS011;10349;48.666;8.948;2023-05-07T07:36:12;4.40;;;4.20;;
20379;SDS011;10349;48.666;8.948;2023-05-07T07:38:37;9.33;;;3.90;;
20379;SDS011;10349;48.666;8.948;2023-05-07T07:41:04;5.13;;;4.80;;
20379;SDS011;10349;48.666;8.948;2023-05-07T07:43:30;4.70;;;4.17;;
20379;SDS011;10349;48.666;8.948;2023-05-07T07:45:55;5.03;;;4.67;;
20379;SDS011;10349;48.666;8.948;2023-05-07T07:48:21;4.60;;;4.30;;
20379;SDS011;10349;48.666;8.948;2023-05-07T07:50:50;3.40;;;3.20;;
20379;SDS011;10349;48.666;8.948;2023-05-07T07:53:17;4.20;;;3.90;;
20379;SDS011;10349;48.666;8.948;2023-05-07T07:55:44;3.80;;;3.60;;
20379;SDS011;10349;48.666;8.948;2023-05-07T07:58:12;4.63;;;4.33;;
20379;SDS011;10349;48.666;8.948;2023-05-07T08:00:39;4.63;;;4.13;;
20379;SDS011;10349;48.666;8.948;2023-05-07T08:03:05;4.40;;;4.13;;
20379;SDS011;10349;48.666;8.948;2023-05-07T08:05:36;3.97;;;3.67;;
20379;SDS011;10349;48.666;8.948;2023-05-07T08:08:04;4.13;;;3.83;;
20379;SDS011;10349;48.666;8.948;2023-05-07T08:10:32;4.57;;;4.27;;
20379;SDS011;10349;48.666;8.948;2023-05-07T08:13:07;4.37;;;4.07;;
20379;SDS011;10349;48.666;8.948;2023-05-07T08:15:35;5.27;;;4.73;;
20379;SDS011;10349;48.666;8.948;2023-05-07T08:18:01;4.40;;;3.50;;
20379;SDS011;10349;48.666;8.948;2023-05-07T08:20:28;4.40;;;4.20;;
20379;SDS011;10349;48.666;8.948;2023-05-07T08:22:55;4.70;;;4.23;;
20379;SDS011;10349;48.666;8.948;2023-05-07T08:25:21;4.60;;;4.30;;
20379;SDS011;10349;48.666;8.948;2023-05-07T08:27:47;4.80;;;4.50;;
20379;SDS011;10349;48.666;8.948;2023-05-07T08:30:14;4.03;;;3.77;;
20379;SDS011;10349;48.666;8.948;2023-05-07T08:32:41;4.13;;;3.93;;
20379;SDS011;10349;48.666;8.948;2023-05-07T08:35:07;4.63;;;4.23;;
20379;SDS011;10349;48.666;8.948;2023-05-07T08:37:33;3.03;;;2.83;;
20379;SDS011;10349;48.666;8.948;2023-05-07T08:39:59;4.37;;;4.07;;
20379;SDS011;10349;48.666;8.948;2023-05-07T08:42:30;4.03;;;3.03;;
20379;SDS011;10349;48.666;8.948;2023-05-07T08:45:00;3.80;;;3.40;;
20379;SDS011;10349;48.666;8.948;2023-05-07T08:47:34;4.67;;;4.37;;
20379;SDS011;10349;48.666;8.948;2023-05-07T08:50:12;3.60;;;3.40;;
20379;SDS011;10349;48.666;8.948;2023-05-07T08:52:39;3.60;;;3.40;;
20379;SDS011;10349;48.666;8.948;2023-05-07T08:55:08;3.53;;;3.23;;
20379;SDS011;10349;48.666;8.948;2023-05-07T08:57:34;4.40;;;4.00;;
20379;SDS011;10349;48.666;8.948;2023-05-07T09:00:02;3.53;;;3.33;;
20379;SDS011;10349;48.666;8.948;2023-05-07T09:02:29;5.70;;;3.30;;
20379;SDS011;10349;48.666;8.948;2023-05-07T09:04:55;3.20;;;3.00;;
20379;SDS011;10349;48.666;8.948;2023-05-07T09:07:20;4.00;;;3.80;;
20379;SDS011;10349;48.666;8.948;2023-05-07T09:09:47;5.00;;;4.53;;
20379;SDS011;10349;48.666;8.948;2023-05-07T09:12:13;3.37;;;3.10;;
20379;SDS011;10349;48.666;8.948;2023-05-07T09:14:40;4.00;;;3.70;;
20379;SDS011;10349;48.666;8.948;2023-05-07T09:17:05;3.07;;;2.87;;
20379;SDS011;10349;48.666;8.948;2023-05-07T09:19:31;3.13;;;2.93;;
20379;SDS011;10349;48.666;8.948;2023-05-07T09:22:00;3.60;;;3.40;;
20379;SDS011;10349;48.666;8.948;2023-05-07T09:24:31;3.20;;;3.00;;
20379;SDS011;10349;48.666;8.948;2023-05-07T09:27:01;3.30;;;3.10;;
20379;SDS011;10349;48.666;8.948;2023-05-07T09:29:30;3.47;;;3.27;;
20379;SDS011;10349;48.666;8.948;2023-05-07T09:32:01;4.00;;;3.77;;
20379;SDS011;10349;48.666;8.948;2023-05-07T09:34:29;3.60;;;3.40;;
20379;SDS011;10349;48.666;8.948;2023-05-07T09:36:56;6.43;;;2.93;;
20379;SDS011;10349;48.666;8.948;2023-05-07T09:39:23;3.30;;;3.10;;
20379;SDS011;10349;48.666;8.948;2023-05-07T09:41:50;3.00;;;2.80;;
20379;SDS011;10349;48.666;8.948;2023-05-07T09:44:25;2.90;;;2.70;;
20379;SDS011;10349;48.666;8.948;2023-05-07T09:47:04;2.90;;;2.80;;
20379;SDS011;10349;48.666;8.948;2023-05-07T09:49:37;3.80;;;3.60;;
20379;SDS011;10349;48.666;8.948;2023-05-07T09:52:08;3.73;;;3.50;;
20379;SDS011;10349;48.666;8.948;2023-05-07T09:54:40;3.10;;;2.90;;
20379;SDS011;10349;48.666;8.948;2023-05-07T09:57:09;2.93;;;2.73;;
20379;SDS011;10349;48.666;8.948;2023-05-07T09:59:37;3.60;;;3.40;;
20379;SDS011;10349;48.666;8.948;2023-05-07T10:02:07;4.00;;;3.13;;
20379;SDS011;10349;48.666;8.948;2023-05-07T10:04:41;3.10;;;2.90;;
20379;SDS011;10349;48.666;8.948;2023-05-07T10:07:08;3.40;;;3.10;;
20379;SDS011;10349;48.666;8.948;2023-05-07T10:09:35;3.73;;;3.53;;
20379;SDS011;10349;48.666;8.948;2023-05-07T10:12:05;4.50;;;3.77;;
20379;SDS011;10349;48.666;8.948;2023-05-07T10:14:32;5.67;;;3.20;;
20379;SDS011;10349;48.666;8.948;2023-05-07T10:16:59;3.47;;;3.20;;
20379;SDS011;10349;48.666;8.948;2023-05-07T10:19:26;3.10;;;2.80;;
20379;SDS011;10349;48.666;8.948;2023-05-07T10:21:55;3.30;;;3.10;;
20379;SDS011;10349;48.666;8.948;2023-05-07T10:24:32;3.50;;;3.20;;
20379;SDS011;10349;48.666;8.948;2023-05-07T10:27:11;3.37;;;3.17;;
20379;SDS011;10349;48.666;8.948;2023-05-07T10:32:50;4.73;;;3.17;;
20379;SDS011;10349;48.666;8.948;2023-05-07T10:35:26;3.47;;;2.90;;
20379;SDS011;10349;48.666;8.948;2023-05-07T10:37:58;3.27;;;3.07;;
20379;SDS011;10349;48.666;8.948;2023-05-07T10:40:27;3.80;;;3.60;;
20379;SDS011;10349;48.666;8.948;2023-05-07T10:42:54;3.23;;;3.03;;
20379;SDS011;10349;48.666;8.948;2023-05-07T10:45:22;4.00;;;3.00;;
20379;SDS011;10349;48.666;8.948;2023-05-07T10:50:39;3.40;;;3.07;;
20379;SDS011;10349;48.666;8.948;2023-05-07T10:58:44;4.00;;;3.70;;
20379;SDS011;10349;48.666;8.948;2023-05-07T11:01:30;3.27;;;3.07;;
20379;SDS011;10349;48.666;8.948;2023-05-07T11:04:25;3.30;;;3.10;;
20379;SDS011;10349;48.666;8.948;2023-05-07T11:07:25;3.43;;;3.23;;
20379;SDS011;10349;48.666;8.948;2023-05-07T11:09:57;4.43;;;4.03;;
20379;SDS011;10349;48.666;8.948;2023-05-07T11:15:14;3.57;;;3.37;;
20379;SDS011;10349;48.666;8.948;2023-05-07T11:17:54;3.67;;;3.47;;
20379;SDS011;10349;48.666;8.948;2023-05-07T11:26:07;3.77;;;2.77;;
20379;SDS011;10349;48.666;8.948;2023-05-07T11:28:38;3.70;;;3.50;;
20379;SDS011;10349;48.666;8.948;2023-05-07T11:31:05;4.87;;;4.57;;
20379;SDS011;10349;48.666;8.948;2023-05-07T11:33:32;3.30;;;3.10;;
20379;SDS011;10349;48.666;8.948;2023-05-07T11:36:04;3.33;;;3.13;;
20379;SDS011;10349;48.666;8.948;2023-05-07T11:38:37;4.10;;;3.33;;
20379;SDS011;10349;48.666;8.948;2023-05-07T11:41:03;3.10;;;2.90;;
20379;SDS011;10349;48.666;8.948;2023-05-07T11:43:30;3.00;;;2.80;;
20379;SDS011;10349;48.666;8.948;2023-05-07T11:46:08;3.20;;;2.90;;
20379;SDS011;10349;48.666;8.948;2023-05-07T11:48:35;3.63;;;3.43;;
20379;SDS011;10349;48.666;8.948;2023-05-07T11:51:05;3.43;;;3.30;;
20379;SDS011;10349;48.666;8.948;2023-05-07T11:53:35;3.80;;;3.13;;
20379;SDS011;10349;48.666;8.948;2023-05-07T11:56:06;4.40;;;4.10;;
20379;SDS011;10349;48.666;8.948;2023-05-07T11:58:40;3.63;;;3.43;;
20379;SDS011;10349;48.666;8.948;2023-05-07T12:01:10;4.80;;;4.50;;
20379;SDS011;10349;48.666;8.948;2023-05-07T12:03:37;4.83;;;4.03;;
20379;SDS011;10349;48.666;8.948;2023-05-07T12:06:07;4.00;;;3.80;;
20379;SDS011;10349;48.666;8.948;2023-05-07T12:08:35;3.10;;;2.90;;
20379;SDS011;10349;48.666;8.948;2023-05-07T12:11:03;4.37;;;4.07;;
20379;SDS011;10349;48.666;8.948;2023-05-07T12:13:31;2.13;;;2.03;;
20379;SDS011;10349;48.666;8.948;2023-05-07T12:15:57;2.70;;;2.50;;
20379;SDS011;10349;48.666;8.948;2023-05-07T12:18:23;4.43;;;2.90;;
20379;SDS011;10349;48.666;8.948;2023-05-07T12:20:49;2.47;;;2.37;;
20379;SDS011;10349;48.666;8.948;2023-05-07T12:23:16;2.63;;;2.43;;
20379;SDS011;10349;48.666;8.948;2023-05-07T12:25:42;2.50;;;2.30;;
20379;SDS011;10349;48.666;8.948;2023-05-07T12:28:18;3.37;;;2.97;;
20379;SDS011;10349;48.666;8.948;2023-05-07T12:30:52;2.57;;;2.47;;
20379;SDS011;10349;48.666;8.948;2023-05-07T12:33:23;3.30;;;3.10;;
20379;SDS011;10349;48.666;8.948;2023-05-07T12:35:50;8.93;;;2.80;;
20379;SDS011;10349;48.666;8.948;2023-05-07T12:38:46;5.77;;;2.93;;
20379;SDS011;10349;48.666;8.948;2023-05-07T12:44:32;3.10;;;2.40;;
20379;SDS011;10349;48.666;8.948;2023-05-07T12:47:16;2.27;;;2.07;;
20379;SDS011;10349;48.666;8.948;2023-05-07T12:49:41;3.10;;;1.70;;
20379;SDS011;10349;48.666;8.948;2023-05-07T12:52:08;2.37;;;2.17;;
20379;SDS011;10349;48.666;8.948;2023-05-07T12:54:34;3.80;;;1.90;;
20379;SDS011;10349;48.666;8.948;2023-05-07T12:57:06;3.00;;;2.70;;
20379;SDS011;10349;48.666;8.948;2023-05-07T12:59:33;2.33;;;2.03;;
20379;SDS011;10349;48.666;8.948;2023-05-07T13:02:00;2.50;;;2.30;;
20379;SDS011;10349;48.666;8.948;2023-05-07T13:04:26;6.70;;;2.50;;
20379;SDS011;10349;48.666;8.948;2023-05-07T13:06:51;2.50;;;2.30;;
20379;SDS011;10349;48.666;8.948;2023-05-07T13:09:17;4.90;;;3.23;;
20379;SDS011;10349;48.666;8.948;2023-05-07T13:11:43;2.93;;;2.73;;
20379;SDS011;10349;48.666;8.948;2023-05-07T13:14:12;2.90;;;2.70;;
20379;SDS011;10349;48.666;8.948;2023-05-07T13:16:40;2.57;;;2.37;;
20379;SDS011;10349;48.666;8.948;2023-05-07T13:19:09;2.40;;;2.30;;
20379;SDS011;10349;48.666;8.948;2023-05-07T13:21:35;2.90;;;2.70;;
20379;SDS011;10349;48.666;8.948;2023-05-07T13:24:01;4.20;;;3.53;;
20379;SDS011;10349;48.666;8.948;2023-05-07T13:26:26;3.90;;;3.70;;
20379;SDS011;10349;48.666;8.948;2023-05-07T13:28:55;4.60;;;3.33;;
20379;SDS011;10349;48.666;8.948;2023-05-07T13:31:28;4.30;;;4.00;;
20379;SDS011;10349;48.666;8.948;2023-05-07T13:34:32;4.20;;;3.90;;
20379;SDS011;10349;48.666;8.948;2023-05-07T13:37:49;3.97;;;3.67;;
20379;SDS011;10349;48.666;8.948;2023-05-07T13:40:43;3.97;;;3.33;;
20379;SDS011;10349;48.666;8.948;2023-05-07T13:43:09;3.90;;;3.70;;
20379;SDS011;10349;48.666;8.948;2023-05-07T13:45:35;9.50;;;4.97;;
20379;SDS011;10349;48.666;8.948;2023-05-07T13:48:02;6.00;;;4.20;;
20379;SDS011;10349;48.666;8.948;2023-05-07T13:50:28;4.83;;;4.33;;
20379;SDS011;10349;48.666;8.948;2023-05-07T13:52:55;3.87;;;3.67;;
20379;SDS011;10349;48.666;8.948;2023-05-07T13:55:21;5.50;;;4.63;;
20379;SDS011;10349;48.666;8.948;2023-05-07T13:57:53;5.90;;;4.40;;
20379;SDS011;10349;48.666;8.948;2023-05-07T14:00:25;4.80;;;4.40;;
20379;SDS011;10349;48.666;8.948;2023-05-07T14:02:52;4.30;;;3.93;;
20379;SDS011;10349;48.666;8.948;2023-05-07T14:05:18;5.17;;;4.73;;
20379;SDS011;10349;48.666;8.948;2023-05-07T14:07:44;3.70;;;3.50;;
20379;SDS011;10349;48.666;8.948;2023-05-07T14:10:10;4.70;;;4.40;;
20379;SDS011;10349;48.666;8.948;2023-05-07T14:12:36;4.20;;;3.87;;
20379;SDS011;10349;48.666;8.948;2023-05-07T14:15:02;5.90;;;4.20;;
20379;SDS011;10349;48.666;8.948;2023-05-07T14:17:28;4.73;;;4.43;;
20379;SDS011;10349;48.666;8.948;2023-05-07T14:19:54;4.60;;;4.10;;
20379;SDS011;10349;48.666;8.948;2023-05-07T14:22:20;3.90;;;3.63;;
20379;SDS011;10349;48.666;8.948;2023-05-07T14:24:47;4.60;;;4.10;;
20379;SDS011;10349;48.666;8.948;2023-05-07T14:27:13;9.53;;;3.20;;
20379;SDS011;10349;48.666;8.948;2023-05-07T14:29:39;6.13;;;3.90;;
20379;SDS011;10349;48.666;8.948;2023-05-07T14:32:04;4.30;;;3.87;;
20379;SDS011;10349;48.666;8.948;2023-05-07T14:34:30;3.97;;;3.67;;
20379;SDS011;10349;48.666;8.948;2023-05-07T14:36:56;5.23;;;3.63;;
20379;SDS011;10349;48.666;8.948;2023-05-07T14:39:23;4.63;;;4.27;;
20379;SDS011;10349;48.666;8.948;2023-05-07T14:41:48;5.20;;;4.33;;
20379;SDS011;10349;48.666;8.948;2023-05-07T14:44:14;3.97;;;3.47;;
20379;SDS011;10349;48.666;8.948;2023-05-07T14:46:40;3.20;;;3.00;;
20379;SDS011;10349;48.666;8.948;2023-05-07T14:49:05;3.33;;;3.13;;
20379;SDS011;10349;48.666;8.948;2023-05-07T14:51:32;3.33;;;3.03;;
20379;SDS011;10349;48.666;8.948;2023-05-07T14:53:58;3.10;;;2.90;;
20379;SDS011;10349;48.666;8.948;2023-05-07T14:56:23;3.93;;;3.67;;
20379;SDS011;10349;48.666;8.948;2023-05-07T14:58:49;4.00;;;3.70;;
20379;SDS011;10349;48.666;8.948;2023-05-07T15:01:15;4.63;;;1.90;;
20379;SDS011;10349;48.666;8.948;2023-05-07T15:03:41;2.50;;;2.30;;
20379;SDS011;10349;48.666;8.948;2023-05-07T15:06:06;2.30;;;2.20;;
20379;SDS011;10349;48.666;8.948;2023-05-07T15:08:32;2.97;;;2.67;;
20379;SDS011;10349;48.666;8.948;2023-05-07T15:10:58;7.50;;;3.30;;
20379;SDS011;10349;48.666;8.948;2023-05-07T15:13:23;3.10;;;2.90;;
20379;SDS011;10349;48.666;8.948;2023-05-07T15:15:49;4.03;;;3.50;;